createdAt,value
2019-03-21T00:01:47.064Z,15.30
2019-03-21T00:04:15.829Z,14.57
2019-03-21T00:06:44.300Z,14.47
2019-03-21T00:09:15.845Z,16.40
2019-03-21T00:12:01.762Z,18.67
2019-03-21T00:14:45.511Z,18.93
2019-03-21T00:17:34.534Z,19.37
2019-03-21T00:20:04.376Z,22.40
2019-03-21T00:22:32.778Z,23.77
2019-03-21T00:25:01.265Z,23.27
2019-03-21T00:27:29.924Z,23.23
2019-03-21T00:29:59.021Z,26.23
2019-03-21T00:32:27.399Z,18.93
2019-03-21T00:34:55.786Z,20.00
2019-03-21T00:37:24.302Z,17.20
2019-03-21T00:39:52.689Z,17.47
2019-03-21T00:42:21.082Z,18.70
2019-03-21T00:44:49.804Z,17.67
2019-03-21T00:47:18.530Z,18.77
2019-03-21T00:49:47.180Z,18.27
2019-03-21T00:52:15.869Z,19.63
2019-03-21T00:54:44.857Z,20.30
2019-03-21T00:57:13.486Z,24.37
2019-03-21T00:59:41.951Z,24.13
2019-03-21T01:02:10.712Z,20.70
2019-03-21T01:04:39.326Z,20.13
2019-03-21T01:07:07.794Z,22.87
2019-03-21T01:09:36.239Z,20.83
2019-03-21T01:12:05.052Z,21.67
2019-03-21T01:14:33.776Z,21.17
2019-03-21T01:17:02.324Z,22.63
2019-03-21T01:19:33.256Z,23.00
2019-03-21T01:22:00.889Z,22.23
2019-03-21T01:24:29.289Z,21.30
2019-03-21T01:26:57.695Z,23.60
2019-03-21T01:29:26.099Z,22.43
2019-03-21T01:31:54.748Z,22.30
2019-03-21T01:34:23.199Z,22.10
2019-03-21T01:36:51.607Z,21.90
2019-03-21T01:39:20.018Z,22.90
2019-03-21T01:41:48.660Z,24.33
2019-03-21T01:44:17.064Z,24.20
2019-03-21T01:46:45.834Z,23.30
2019-03-21T01:49:14.528Z,23.73
2019-03-21T01:51:43.021Z,22.13
2019-03-21T01:54:11.887Z,21.30
2019-03-21T01:56:40.579Z,22.60
2019-03-21T01:59:09.207Z,22.20
2019-03-21T02:01:37.845Z,24.17
2019-03-21T02:04:06.244Z,21.47
2019-03-21T02:06:34.635Z,22.87
2019-03-21T02:09:04.661Z,22.23
2019-03-21T02:11:33.231Z,25.63
2019-03-21T02:14:02.196Z,24.00
2019-03-21T02:16:30.584Z,24.73
2019-03-21T02:18:59.049Z,25.20
2019-03-21T02:21:27.753Z,24.07
2019-03-21T02:23:56.145Z,23.57
2019-03-21T02:26:24.527Z,23.50
2019-03-21T02:28:52.926Z,23.97
2019-03-21T02:31:21.571Z,22.27
2019-03-21T02:33:49.954Z,22.73
2019-03-21T02:36:18.363Z,24.00
2019-03-21T02:38:46.974Z,27.27
2019-03-21T02:41:16.736Z,23.60
2019-03-21T02:43:45.113Z,29.63
2019-03-21T02:46:13.517Z,23.20
2019-03-21T02:48:41.918Z,26.03
2019-03-21T02:51:10.372Z,26.70
2019-03-21T02:53:39.031Z,25.83
2019-03-21T02:56:23.099Z,24.73
2019-03-21T02:58:51.571Z,22.10
2019-03-21T03:01:20.058Z,21.57
2019-03-21T03:03:48.481Z,24.27
2019-03-21T03:06:17.015Z,23.50
2019-03-21T03:08:45.718Z,22.07
2019-03-21T03:11:19.834Z,24.40
2019-03-21T03:13:50.177Z,25.30
2019-03-21T03:16:19.557Z,26.40
2019-03-21T03:18:48.370Z,24.47
2019-03-21T03:21:16.763Z,24.20
2019-03-21T03:23:45.141Z,24.00
2019-03-21T03:26:13.770Z,26.73
2019-03-21T03:28:44.595Z,25.07
2019-03-21T03:31:13.234Z,25.40
2019-03-21T03:33:41.619Z,25.57
2019-03-21T03:36:11.090Z,24.37
2019-03-21T03:38:39.788Z,23.83
2019-03-21T03:41:17.195Z,22.03
2019-03-21T03:43:45.663Z,27.40
2019-03-21T03:46:14.132Z,27.30
2019-03-21T03:48:42.617Z,27.37
2019-03-21T03:51:11.200Z,26.73
2019-03-21T03:53:42.419Z,24.00
2019-03-21T03:56:09.712Z,26.53
2019-03-21T03:58:50.313Z,26.30
2019-03-21T04:01:18.837Z,27.17
2019-03-21T04:03:47.308Z,25.77
2019-03-21T04:06:15.932Z,26.23
2019-03-21T04:08:44.467Z,26.30
2019-03-21T04:11:13.091Z,25.20
2019-03-21T04:13:41.838Z,29.20
2019-03-21T04:16:10.565Z,31.07
2019-03-21T04:18:38.988Z,32.00
2019-03-21T04:21:14.883Z,30.30
2019-03-21T04:23:43.363Z,30.90
2019-03-21T04:26:20.653Z,26.40
2019-03-21T04:28:49.429Z,27.07
2019-03-21T04:31:17.818Z,29.87
2019-03-21T04:33:48.157Z,24.70
2019-03-21T04:36:16.526Z,29.30
2019-03-21T04:38:44.912Z,30.50
2019-03-21T04:41:13.307Z,27.60
2019-03-21T04:43:41.699Z,25.87
2019-03-21T04:46:10.124Z,27.97
2019-03-21T04:48:38.825Z,24.70
2019-03-21T04:51:07.206Z,22.73
2019-03-21T04:53:35.606Z,25.87
2019-03-21T04:56:03.993Z,25.70
2019-03-21T04:58:32.527Z,26.43
2019-03-21T05:01:01.077Z,26.53
2019-03-21T05:03:31.008Z,23.03
2019-03-21T05:05:59.575Z,26.23
2019-03-21T05:08:28.032Z,23.60
2019-03-21T05:10:56.405Z,23.13
2019-03-21T05:13:25.158Z,20.63
2019-03-21T05:15:54.681Z,20.17
2019-03-21T05:18:38.234Z,18.77
2019-03-21T05:21:09.909Z,20.90
2019-03-21T05:23:38.668Z,23.97
2019-03-21T05:26:07.154Z,20.37
2019-03-21T05:28:35.579Z,21.67
2019-03-21T05:31:10.386Z,21.97
2019-03-21T05:33:38.780Z,20.43
2019-03-21T05:36:07.432Z,23.40
2019-03-21T05:38:35.815Z,23.93
2019-03-21T05:41:04.277Z,23.23
2019-03-21T05:43:41.867Z,24.50
2019-03-21T05:46:10.276Z,24.90
2019-03-21T05:48:38.672Z,21.50
2019-03-21T05:51:07.125Z,21.63
2019-03-21T05:53:35.506Z,23.70
2019-03-21T05:56:04.071Z,23.47
2019-03-21T05:58:32.479Z,25.70
2019-03-21T06:01:09.435Z,18.83
2019-03-21T06:03:53.402Z,20.80
2019-03-21T06:06:34.128Z,20.20
2019-03-21T06:09:02.841Z,18.80
2019-03-21T06:11:31.226Z,18.03
2019-03-21T06:13:59.788Z,22.03
2019-03-21T06:16:37.186Z,22.70
2019-03-21T06:19:04.338Z,19.83
2019-03-21T06:21:35.786Z,22.73
2019-03-21T06:24:32.222Z,20.40
2019-03-21T06:27:14.423Z,23.17
2019-03-21T06:29:39.644Z,21.70
2019-03-21T06:32:08.327Z,23.73
2019-03-21T06:34:37.194Z,27.27
2019-03-21T06:37:05.873Z,22.60
2019-03-21T06:39:34.384Z,22.93
2019-03-21T06:42:03.152Z,22.93
2019-03-21T06:44:31.542Z,26.40
2019-03-21T06:46:59.953Z,23.63
2019-03-21T06:49:28.351Z,27.50
2019-03-21T06:51:56.753Z,25.47
2019-03-21T06:54:25.172Z,24.03
2019-03-21T06:56:53.829Z,29.23
2019-03-21T06:59:22.225Z,23.90
2019-03-21T07:01:51.019Z,26.33
2019-03-21T07:04:19.456Z,23.87
2019-03-21T07:06:47.849Z,24.93
2019-03-21T07:09:16.540Z,24.10
2019-03-21T07:11:44.950Z,22.43
2019-03-21T07:14:13.337Z,26.33
2019-03-21T07:16:41.914Z,27.23
2019-03-21T07:19:10.673Z,24.50
2019-03-21T07:21:39.073Z,23.50
2019-03-21T07:24:07.468Z,23.00
2019-03-21T07:26:35.859Z,23.70
2019-03-21T07:29:04.620Z,23.47
2019-03-21T07:31:33.006Z,26.83
2019-03-21T07:34:01.393Z,26.00
2019-03-21T07:36:29.799Z,25.37
2019-03-21T07:38:58.198Z,24.67
2019-03-21T07:41:26.901Z,26.73
2019-03-21T07:43:55.302Z,25.43
2019-03-21T07:46:23.688Z,24.03
2019-03-21T07:48:52.437Z,22.43
2019-03-21T07:51:20.831Z,23.20
2019-03-21T07:53:49.230Z,24.20
2019-03-21T07:56:17.899Z,27.80
2019-03-21T07:58:46.283Z,26.77
2019-03-21T08:01:14.675Z,25.30
2019-03-21T08:03:43.076Z,26.53
2019-03-21T08:06:11.471Z,24.33
2019-03-21T08:08:39.876Z,26.10
2019-03-21T08:11:08.373Z,23.50
2019-03-21T08:13:36.886Z,27.27
2019-03-21T08:16:05.275Z,22.97
2019-03-21T08:18:34.176Z,23.00
2019-03-21T08:21:02.527Z,22.33
2019-03-21T08:23:30.923Z,22.70
2019-03-21T08:25:59.305Z,20.37
2019-03-21T08:28:27.718Z,22.33
2019-03-21T08:31:04.892Z,22.03
2019-03-21T08:33:33.288Z,24.60
2019-03-21T08:36:01.994Z,25.03
2019-03-21T08:38:30.391Z,21.20
2019-03-21T08:40:59.056Z,25.80
2019-03-21T08:43:27.447Z,22.17
2019-03-21T08:45:55.847Z,22.73
2019-03-21T08:48:24.315Z,20.37
2019-03-21T08:50:52.705Z,21.70
2019-03-21T08:53:21.369Z,23.07
2019-03-21T08:55:49.763Z,22.00
2019-03-21T08:58:18.164Z,22.63
2019-03-21T09:00:46.804Z,18.70
2019-03-21T09:03:15.300Z,19.10
2019-03-21T09:05:44.072Z,18.00
2019-03-21T09:08:12.769Z,19.17
2019-03-21T09:10:41.444Z,18.27
2019-03-21T09:13:09.829Z,17.33
2019-03-21T09:15:39.130Z,18.30
2019-03-21T09:18:07.526Z,19.07
2019-03-21T09:20:35.932Z,16.00
2019-03-21T09:23:04.472Z,15.10
2019-03-21T09:25:32.860Z,14.47
2019-03-21T09:28:02.876Z,15.50
2019-03-21T09:30:31.640Z,14.97
2019-03-21T09:33:00.337Z,17.47
2019-03-21T09:35:28.730Z,16.53
2019-03-21T09:37:57.132Z,19.40
2019-03-21T09:40:25.779Z,15.03
2019-03-21T09:42:54.471Z,14.70
2019-03-21T09:45:23.160Z,14.57
2019-03-21T09:47:51.553Z,13.87
2019-03-21T09:50:28.022Z,13.50
2019-03-21T09:52:56.430Z,13.10
2019-03-21T09:55:25.471Z,12.63
2019-03-21T09:57:53.953Z,12.90
2019-03-21T10:00:30.574Z,12.80
2019-03-21T10:02:59.039Z,12.63
2019-03-21T10:05:27.903Z,11.83
2019-03-21T10:07:56.590Z,12.70
2019-03-21T10:10:29.808Z,11.90
2019-03-21T10:12:58.216Z,11.83
2019-03-21T10:15:27.256Z,12.87
2019-03-21T10:17:55.976Z,12.20
2019-03-21T10:20:24.363Z,12.20
2019-03-21T10:22:52.752Z,12.03
2019-03-21T10:25:21.392Z,13.77
2019-03-21T10:27:49.987Z,12.70
2019-03-21T10:30:21.425Z,12.93
2019-03-21T10:32:49.831Z,13.93
2019-03-21T10:35:18.260Z,12.37
2019-03-21T10:37:46.968Z,12.73
2019-03-21T10:40:15.378Z,11.63
2019-03-21T10:42:43.756Z,9.43
2019-03-21T10:45:12.232Z,10.17
2019-03-21T10:47:41.103Z,10.40
2019-03-21T10:50:10.244Z,10.33
2019-03-21T10:52:38.620Z,10.97
2019-03-21T10:55:07.184Z,10.70
2019-03-21T10:57:35.847Z,11.90
2019-03-21T11:00:07.607Z,11.47
2019-03-21T11:02:36.288Z,13.00
2019-03-21T11:05:06.616Z,12.00
2019-03-21T11:07:35.298Z,12.07
2019-03-21T11:10:05.728Z,12.90
2019-03-21T11:12:34.413Z,12.20
2019-03-21T11:15:03.205Z,12.23
2019-03-21T11:17:31.900Z,12.57
2019-03-21T11:20:00.577Z,11.23
2019-03-21T11:22:28.960Z,12.37
2019-03-21T11:24:57.345Z,11.73
2019-03-21T11:27:25.755Z,12.97
2019-03-21T11:29:54.393Z,11.30
2019-03-21T11:32:23.083Z,12.10
2019-03-21T11:34:51.868Z,11.00
2019-03-21T11:37:20.252Z,10.43
2019-03-21T11:39:48.649Z,12.70
2019-03-21T11:42:17.053Z,12.23
2019-03-21T11:44:45.472Z,11.17
2019-03-21T11:47:14.599Z,11.60
2019-03-21T11:49:42.972Z,11.50
2019-03-21T11:52:18.234Z,11.03
2019-03-21T11:54:41.508Z,11.53
2019-03-21T11:57:10.254Z,12.20
2019-03-21T11:59:51.201Z,10.50
2019-03-21T12:02:08.987Z,12.83
2019-03-21T12:04:37.371Z,13.50
2019-03-21T12:07:06.032Z,11.57
2019-03-21T12:09:34.406Z,11.27
2019-03-21T12:12:02.795Z,11.47
2019-03-21T12:14:31.186Z,10.83
2019-03-21T12:16:59.577Z,10.77
2019-03-21T12:19:27.975Z,14.80
2019-03-21T12:21:56.365Z,10.93
2019-03-21T12:24:24.774Z,11.37
2019-03-21T12:26:53.154Z,11.17
2019-03-21T12:29:21.555Z,10.40
2019-03-21T12:31:49.927Z,9.97
2019-03-21T12:34:18.327Z,10.27
2019-03-21T12:36:46.725Z,10.90
2019-03-21T12:39:15.114Z,11.43
2019-03-21T12:41:43.505Z,10.70
2019-03-21T12:44:12.224Z,10.27
2019-03-21T12:46:40.615Z,11.13
2019-03-21T12:49:09.004Z,9.93
2019-03-21T12:51:37.391Z,9.80
2019-03-21T12:54:06.143Z,9.83
2019-03-21T12:56:34.823Z,9.57
2019-03-21T12:59:03.512Z,9.90
2019-03-21T13:01:32.200Z,10.37
2019-03-21T13:04:00.889Z,8.63
2019-03-21T13:06:29.527Z,11.00
2019-03-21T13:08:57.904Z,10.07
2019-03-21T13:11:26.473Z,9.93
2019-03-21T13:13:55.119Z,9.87
2019-03-21T13:16:23.505Z,9.60
2019-03-21T13:18:52.205Z,10.27
2019-03-21T13:21:20.976Z,12.77
2019-03-21T13:23:49.370Z,10.17
2019-03-21T13:26:17.957Z,9.93
2019-03-21T13:28:46.620Z,8.97
2019-03-21T13:31:15.091Z,10.57
2019-03-21T13:33:43.562Z,10.60
2019-03-21T13:36:12.065Z,9.77
2019-03-21T13:38:41.629Z,10.03
2019-03-21T13:41:10.018Z,9.80
2019-03-21T13:43:38.740Z,10.20
2019-03-21T13:46:07.132Z,9.63
2019-03-21T13:48:35.541Z,10.23
2019-03-21T13:51:03.998Z,11.63
2019-03-21T13:53:32.375Z,9.50
2019-03-21T13:56:00.784Z,10.17
2019-03-21T13:58:29.420Z,10.60
2019-03-21T14:00:57.809Z,12.27
2019-03-21T14:03:26.214Z,10.73
2019-03-21T14:05:55.380Z,10.90
2019-03-21T14:08:24.011Z,11.30
2019-03-21T14:10:52.755Z,12.27
2019-03-21T14:13:23.911Z,11.40
2019-03-21T14:15:52.298Z,10.23
2019-03-21T14:18:20.706Z,11.30
2019-03-21T14:20:49.647Z,11.40
2019-03-21T14:23:18.440Z,11.37
2019-03-21T14:25:46.826Z,12.03
2019-03-21T14:28:15.489Z,12.00
2019-03-21T14:30:44.184Z,12.07
2019-03-21T14:33:12.581Z,11.90
2019-03-21T14:35:40.984Z,13.20
2019-03-21T14:38:09.387Z,11.33
2019-03-21T14:40:37.774Z,10.43
2019-03-21T14:43:06.172Z,11.67
2019-03-21T14:45:34.556Z,11.47
2019-03-21T14:48:03.179Z,10.10
2019-03-21T14:50:31.879Z,11.07
2019-03-21T14:53:00.209Z,10.57
2019-03-21T14:55:28.623Z,9.60
2019-03-21T14:57:57.040Z,10.90
2019-03-21T15:00:25.491Z,10.77
2019-03-21T15:02:54.208Z,10.23
2019-03-21T15:05:22.630Z,9.30
2019-03-21T15:07:51.003Z,10.80
2019-03-21T15:10:19.928Z,11.70
2019-03-21T15:12:48.401Z,11.27
2019-03-21T15:15:16.977Z,10.90
2019-03-21T15:17:45.382Z,10.07
2019-03-21T15:20:15.521Z,11.20
2019-03-21T15:22:44.039Z,12.00
2019-03-21T15:25:12.971Z,11.17
2019-03-21T15:27:41.535Z,11.13
2019-03-21T15:30:18.634Z,11.77
2019-03-21T15:32:47.284Z,10.70
2019-03-21T15:35:17.307Z,10.83
2019-03-21T15:37:45.985Z,12.47
2019-03-21T15:40:16.106Z,10.20
2019-03-21T15:42:44.519Z,12.67
2019-03-21T15:45:22.735Z,11.83
2019-03-21T15:47:47.776Z,12.30
2019-03-21T15:50:31.115Z,12.20
2019-03-21T15:52:59.750Z,10.40
2019-03-21T15:55:28.129Z,11.23
2019-03-21T15:57:56.984Z,11.60
2019-03-21T16:00:30.887Z,11.00
2019-03-21T16:02:59.381Z,10.40
2019-03-21T16:05:27.770Z,11.27
2019-03-21T16:07:56.165Z,11.27
2019-03-21T16:10:24.589Z,9.97
2019-03-21T16:12:52.979Z,10.90
2019-03-21T16:15:21.401Z,11.10
2019-03-21T16:17:49.795Z,10.30
2019-03-21T16:20:18.175Z,10.00
2019-03-21T16:22:46.618Z,9.70
2019-03-21T16:25:15.407Z,10.83
2019-03-21T16:27:43.803Z,9.90
2019-03-21T16:30:13.440Z,12.50
2019-03-21T16:32:41.908Z,11.63
2019-03-21T16:35:10.745Z,11.30
2019-03-21T16:37:39.130Z,11.47
2019-03-21T16:40:15.403Z,10.93
2019-03-21T16:42:43.777Z,13.70
2019-03-21T16:45:14.698Z,14.73
2019-03-21T16:47:43.506Z,14.47
2019-03-21T16:50:14.241Z,14.30
2019-03-21T16:52:42.715Z,16.07
2019-03-21T16:55:13.705Z,16.50
2019-03-21T16:57:43.044Z,14.93
2019-03-21T17:00:14.132Z,15.10
2019-03-21T17:02:42.606Z,22.47
2019-03-21T17:05:11.430Z,21.17
2019-03-21T17:07:39.889Z,19.93
2019-03-21T17:10:16.525Z,24.67
2019-03-21T17:12:45.659Z,26.30
2019-03-21T17:15:15.602Z,22.97
2019-03-21T17:17:44.057Z,22.37
2019-03-21T17:20:13.315Z,23.30
2019-03-21T17:22:41.891Z,25.63
2019-03-21T17:25:11.327Z,27.83
2019-03-21T17:27:39.791Z,29.40
2019-03-21T17:30:11.425Z,26.20
2019-03-21T17:32:40.136Z,29.53
2019-03-21T17:35:09.085Z,26.57
2019-03-21T17:37:37.650Z,26.60
2019-03-21T17:40:11.844Z,27.03
2019-03-21T17:42:40.305Z,29.00
2019-03-21T17:45:14.260Z,28.10
2019-03-21T17:47:42.690Z,32.37
2019-03-21T17:50:13.863Z,28.90
2019-03-21T17:52:42.268Z,25.63
2019-03-21T17:55:11.341Z,28.23
2019-03-21T17:57:40.211Z,28.73
2019-03-21T18:00:14.833Z,26.33
2019-03-21T18:02:43.308Z,23.23
2019-03-21T18:05:12.238Z,27.17
2019-03-21T18:07:40.697Z,25.47
2019-03-21T18:10:12.143Z,25.67
2019-03-21T18:12:40.544Z,27.80
2019-03-21T18:15:09.122Z,28.27
2019-03-21T18:17:37.512Z,35.47
2019-03-21T18:20:06.779Z,29.23
2019-03-21T18:22:35.253Z,27.93
2019-03-21T18:25:04.547Z,24.80
2019-03-21T18:27:33.045Z,28.53
2019-03-21T18:30:01.430Z,28.07
2019-03-21T18:32:30.026Z,31.57
2019-03-21T18:34:58.512Z,25.57
2019-03-21T18:37:26.970Z,22.70
2019-03-21T18:39:55.352Z,25.03
2019-03-21T18:42:24.160Z,28.03
2019-03-21T18:44:52.824Z,22.63
2019-03-21T18:47:21.532Z,21.90
2019-03-21T18:49:49.922Z,21.40
2019-03-21T18:52:18.332Z,20.50
2019-03-21T18:54:47.059Z,21.60
2019-03-21T18:57:15.841Z,23.80
2019-03-21T18:59:44.356Z,28.27
2019-03-21T19:02:12.806Z,24.33
2019-03-21T19:04:41.203Z,23.63
2019-03-21T19:07:09.647Z,23.03
2019-03-21T19:09:38.051Z,26.67
2019-03-21T19:12:06.455Z,29.30
2019-03-21T19:14:34.834Z,28.50
2019-03-21T19:17:03.304Z,24.63
2019-03-21T19:19:31.837Z,22.70
2019-03-21T19:22:00.234Z,24.17
2019-03-21T19:24:28.739Z,25.07
2019-03-21T19:26:57.434Z,22.90
2019-03-21T19:29:25.832Z,24.63
2019-03-21T19:31:54.481Z,23.77
2019-03-21T19:34:22.877Z,25.13
2019-03-21T19:36:51.554Z,26.67
2019-03-21T19:39:20.027Z,24.40
2019-03-21T19:41:48.405Z,22.93
2019-03-21T19:44:16.810Z,23.87
2019-03-21T19:46:45.280Z,24.47
2019-03-21T19:49:13.685Z,24.00
2019-03-21T19:51:42.075Z,24.07
2019-03-21T19:54:10.499Z,22.57
2019-03-21T19:56:38.889Z,23.63
2019-03-21T19:59:07.281Z,24.10
2019-03-21T20:01:35.675Z,21.90
2019-03-21T20:04:04.400Z,24.00
2019-03-21T20:06:33.118Z,22.77
2019-03-21T20:09:01.523Z,21.50
2019-03-21T20:11:29.915Z,21.03
2019-03-21T20:13:58.559Z,20.23
2019-03-21T20:16:27.230Z,20.40
2019-03-21T20:18:55.635Z,19.77
2019-03-21T20:21:24.222Z,18.97
2019-03-21T20:23:52.632Z,20.93
2019-03-21T20:26:21.017Z,18.80
2019-03-21T20:28:49.412Z,17.20
2019-03-21T20:31:17.813Z,20.17
2019-03-21T20:33:46.236Z,21.13
2019-03-21T20:36:14.621Z,20.70
2019-03-21T20:38:43.020Z,26.90
2019-03-21T20:41:11.415Z,21.53
2019-03-21T20:43:40.137Z,21.30
2019-03-21T20:46:08.610Z,22.90
2019-03-21T20:48:35.909Z,23.53
2019-03-21T20:51:04.351Z,24.37
2019-03-21T20:53:32.769Z,23.90
2019-03-21T20:56:01.333Z,23.67
2019-03-21T20:58:29.776Z,23.37
2019-03-21T21:00:58.408Z,22.83
2019-03-21T21:03:26.846Z,20.27
2019-03-21T21:05:55.240Z,23.10
2019-03-21T21:08:23.628Z,21.43
2019-03-21T21:10:52.033Z,22.27
2019-03-21T21:13:20.506Z,22.60
2019-03-21T21:15:49.822Z,22.00
2019-03-21T21:18:18.396Z,26.23
2019-03-21T21:20:46.984Z,22.07
2019-03-21T21:23:15.362Z,21.20
2019-03-21T21:25:43.814Z,22.93
2019-03-21T21:28:12.601Z,22.93
2019-03-21T21:30:41.002Z,26.20
2019-03-21T21:33:09.401Z,22.93
2019-03-21T21:35:37.784Z,26.10
2019-03-21T21:38:06.187Z,22.40
2019-03-21T21:40:34.696Z,23.03
2019-03-21T21:43:03.161Z,20.80
2019-03-21T21:45:31.559Z,21.67
2019-03-21T21:47:59.961Z,21.93
2019-03-21T21:50:28.368Z,19.70
2019-03-21T21:52:56.856Z,23.30
2019-03-21T21:55:25.400Z,22.80
2019-03-21T21:57:54.170Z,23.83
2019-03-21T22:00:23.101Z,25.90
2019-03-21T22:02:51.576Z,29.53
2019-03-21T22:05:20.204Z,24.33
2019-03-21T22:07:48.617Z,27.40
2019-03-21T22:10:17.299Z,23.63
2019-03-21T22:12:46.053Z,23.40
2019-03-21T22:15:16.256Z,23.87
2019-03-21T22:17:44.997Z,24.03
2019-03-21T22:20:17.251Z,24.20
2019-03-21T22:22:46.011Z,21.43
2019-03-21T22:25:15.155Z,19.33
2019-03-21T22:27:44.086Z,20.50
2019-03-21T22:30:15.526Z,20.23
2019-03-21T22:32:43.998Z,18.20
2019-03-21T22:35:12.470Z,17.67
2019-03-21T22:37:40.956Z,17.80
2019-03-21T22:40:11.949Z,17.23
2019-03-21T22:42:40.610Z,15.90
2019-03-21T22:45:12.091Z,17.60
2019-03-21T22:47:40.900Z,17.17
2019-03-21T22:50:15.103Z,16.53
2019-03-21T22:52:44.056Z,18.07
2019-03-21T22:55:12.883Z,17.73
2019-03-21T22:57:41.342Z,18.30
2019-03-21T23:00:13.139Z,18.83
2019-03-21T23:02:41.822Z,19.93
2019-03-21T23:05:10.830Z,19.80
2019-03-21T23:07:39.206Z,20.63
2019-03-21T23:10:08.793Z,21.47
2019-03-21T23:12:37.305Z,23.27
2019-03-21T23:15:10.775Z,22.50
2019-03-21T23:17:39.207Z,24.63
2019-03-21T23:20:10.524Z,22.47
2019-03-21T23:22:38.979Z,22.80
2019-03-21T23:25:08.728Z,22.93
2019-03-21T23:27:37.123Z,26.13
2019-03-21T23:30:08.967Z,26.80
2019-03-21T23:32:37.352Z,27.60
2019-03-21T23:35:07.966Z,24.93
2019-03-21T23:37:37.400Z,25.10
2019-03-21T23:40:07.729Z,26.97
2019-03-21T23:42:36.129Z,27.10
2019-03-21T23:45:06.653Z,28.17
2019-03-21T23:47:35.100Z,28.47
2019-03-21T23:50:04.618Z,28.70
2019-03-21T23:52:33.018Z,28.03
2019-03-21T23:55:01.617Z,28.17
2019-03-21T23:57:29.995Z,28.33
2019-03-21T23:59:58.379Z,29.30
